sensor_id;sensor_type;location;lat;lon;timestamp;P1;durP1;ratioP1;P2;durP2;ratioP2
75914;SDS011;64593;51.050;13.780;2023-02-27T07:05:13;10.27;;;3.60;;
75914;SDS011;64593;51.050;13.780;2023-02-27T07:10:18;11.80;;;2.95;;
75914;SDS011;64593;51.050;13.780;2023-02-27T07:15:22;6.25;;;3.15;;
75914;SDS011;64593;51.050;13.780;2023-02-27T07:20:24;12.32;;;4.90;;
75914;SDS011;64593;51.050;13.780;2023-02-27T07:25:25;13.82;;;4.63;;
75914;SDS011;64593;51.050;13.780;2023-02-27T07:30:29;9.75;;;4.97;;
75914;SDS011;64593;51.050;13.780;2023-02-27T07:35:31;8.90;;;4.22;;
75914;SDS011;64593;51.050;13.780;2023-02-27T07:40:33;9.55;;;4.53;;
75914;SDS011;64593;51.050;13.780;2023-02-27T07:45:36;11.65;;;4.60;;
75914;SDS011;64593;51.050;13.780;2023-02-27T07:50:40;9.68;;;4.05;;
75914;SDS011;64593;51.050;13.780;2023-02-27T07:55:42;10.48;;;3.63;;
75914;SDS011;64593;51.050;13.780;2023-02-27T08:00:44;6.15;;;3.22;;
75914;SDS011;64593;51.050;13.780;2023-02-27T08:05:50;6.97;;;2.88;;
75914;SDS011;64593;51.050;13.780;2023-02-27T08:10:51;6.47;;;3.70;;
75914;SDS011;64593;51.050;13.780;2023-02-27T08:15:55;8.75;;;3.75;;
75914;SDS011;64593;51.050;13.780;2023-02-27T08:21:00;9.00;;;3.67;;
75914;SDS011;64593;51.050;13.780;2023-02-27T08:26:07;10.02;;;3.58;;
75914;SDS011;64593;51.050;13.780;2023-02-27T08:31:11;5.47;;;2.95;;
75914;SDS011;64593;51.050;13.780;2023-02-27T08:36:17;7.50;;;3.70;;
75914;SDS011;64593;51.050;13.780;2023-02-27T08:41:19;8.65;;;3.42;;
75914;SDS011;64593;51.050;13.780;2023-02-27T08:46:21;8.02;;;3.47;;
75914;SDS011;64593;51.050;13.780;2023-02-27T08:51:22;13.27;;;3.85;;
75914;SDS011;64593;51.050;13.780;2023-02-27T08:56:26;9.73;;;3.63;;
75914;SDS011;64593;51.050;13.780;2023-02-27T09:01:32;13.52;;;3.85;;
75914;SDS011;64593;51.050;13.780;2023-02-27T09:11:38;12.50;;;4.25;;
75914;SDS011;64593;51.050;13.780;2023-02-27T09:16:45;8.25;;;3.28;;
75914;SDS011;64593;51.050;13.780;2023-02-27T09:21:47;8.10;;;3.33;;
75914;SDS011;64593;51.050;13.780;2023-02-27T09:27:04;8.45;;;3.42;;
75914;SDS011;64593;51.050;13.780;2023-02-27T09:32:10;9.85;;;3.08;;
75914;SDS011;64593;51.050;13.780;2023-02-27T09:37:12;9.25;;;4.03;;
75914;SDS011;64593;51.050;13.780;2023-02-27T09:42:17;13.52;;;2.88;;
75914;SDS011;64593;51.050;13.780;2023-02-27T09:52:50;5.55;;;2.30;;
75914;SDS011;64593;51.050;13.780;2023-02-27T09:57:59;5.68;;;2.13;;
75914;SDS011;64593;51.050;13.780;2023-02-27T10:03:42;5.05;;;2.53;;
75914;SDS011;64593;51.050;13.780;2023-02-27T10:19:45;4.25;;;0.93;;
75914;SDS011;64593;51.050;13.780;2023-02-27T10:25:11;3.47;;;1.10;;
75914;SDS011;64593;51.050;13.780;2023-02-27T10:30:36;1.55;;;0.82;;
75914;SDS011;64593;51.050;13.780;2023-02-27T10:35:39;2.72;;;1.33;;
75914;SDS011;64593;51.050;13.780;2023-02-27T10:40:45;3.88;;;1.33;;
75914;SDS011;64593;51.050;13.780;2023-02-27T10:46:15;3.20;;;1.63;;
75914;SDS011;64593;51.050;13.780;2023-02-27T10:51:26;3.38;;;1.25;;
75914;SDS011;64593;51.050;13.780;2023-02-27T10:56:29;5.82;;;1.40;;
75914;SDS011;64593;51.050;13.780;2023-02-27T11:01:45;4.03;;;1.55;;
75914;SDS011;64593;51.050;13.780;2023-02-27T11:06:50;2.95;;;1.58;;
75914;SDS011;64593;51.050;13.780;2023-02-27T11:11:54;7.10;;;2.22;;
75914;SDS011;64593;51.050;13.780;2023-02-27T11:17:26;7.95;;;2.95;;
75914;SDS011;64593;51.050;13.780;2023-02-27T11:27:38;4.30;;;2.38;;
75914;SDS011;64593;51.050;13.780;2023-02-27T11:33:09;5.50;;;2.25;;
75914;SDS011;64593;51.050;13.780;2023-02-27T11:38:19;9.55;;;2.13;;
75914;SDS011;64593;51.050;13.780;2023-02-27T11:49:04;2.78;;;1.45;;
75914;SDS011;64593;51.050;13.780;2023-02-27T12:00:02;3.70;;;1.55;;
75914;SDS011;64593;51.050;13.780;2023-02-27T12:10:19;7.15;;;1.90;;
75914;SDS011;64593;51.050;13.780;2023-02-27T12:15:29;4.82;;;1.63;;
75914;SDS011;64593;51.050;13.780;2023-02-27T12:21:03;3.45;;;0.90;;
75914;SDS011;64593;51.050;13.780;2023-02-27T12:31:21;3.42;;;1.77;;
75914;SDS011;64593;51.050;13.780;2023-02-27T12:36:26;2.90;;;1.70;;
75914;SDS011;64593;51.050;13.780;2023-02-27T13:02:58;3.53;;;0.93;;
75914;SDS011;64593;51.050;13.780;2023-02-27T13:08:10;2.13;;;0.90;;
75914;SDS011;64593;51.050;13.780;2023-02-27T13:13:30;1.15;;;0.50;;
75914;SDS011;64593;51.050;13.780;2023-02-27T13:18:50;4.57;;;0.90;;
75914;SDS011;64593;51.050;13.780;2023-02-27T13:24:23;1.33;;;0.70;;
75914;SDS011;64593;51.050;13.780;2023-02-27T13:29:31;1.08;;;0.40;;
75914;SDS011;64593;51.050;13.780;2023-02-27T13:35:06;2.38;;;0.80;;
75914;SDS011;64593;51.050;13.780;2023-02-27T13:40:38;0.77;;;0.40;;
75914;SDS011;64593;51.050;13.780;2023-02-27T13:57:05;1.50;;;0.40;;
75914;SDS011;64593;51.050;13.780;2023-02-27T14:07:48;2.80;;;0.45;;
75914;SDS011;64593;51.050;13.780;2023-02-27T14:18:49;1.48;;;0.52;;
75914;SDS011;64593;51.050;13.780;2023-02-27T14:23:53;0.88;;;0.30;;
75914;SDS011;64593;51.050;13.780;2023-02-27T14:29:24;0.47;;;0.28;;
75914;SDS011;64593;51.050;13.780;2023-02-27T14:39:34;0.60;;;0.28;;
75914;SDS011;64593;51.050;13.780;2023-02-27T14:44:38;1.38;;;0.25;;
75914;SDS011;64593;51.050;13.780;2023-02-27T14:50:22;0.82;;;0.20;;
75914;SDS011;64593;51.050;13.780;2023-02-27T14:55:29;1.05;;;0.68;;
75914;SDS011;64593;51.050;13.780;2023-02-27T15:00:34;0.65;;;0.30;;
75914;SDS011;64593;51.050;13.780;2023-02-27T15:06:03;1.08;;;0.43;;
75914;SDS011;64593;51.050;13.780;2023-02-27T15:11:31;2.75;;;0.60;;
75914;SDS011;64593;51.050;13.780;2023-02-27T15:16:40;1.08;;;0.60;;
75914;SDS011;64593;51.050;13.780;2023-02-27T15:22:13;2.97;;;0.80;;
75914;SDS011;64593;51.050;13.780;2023-02-27T15:27:48;3.70;;;1.23;;
75914;SDS011;64593;51.050;13.780;2023-02-27T15:32:51;0.85;;;0.40;;
75914;SDS011;64593;51.050;13.780;2023-02-27T15:37:57;1.08;;;0.60;;
75914;SDS011;64593;51.050;13.780;2023-02-27T15:43:28;0.85;;;0.40;;
75914;SDS011;64593;51.050;13.780;2023-02-27T15:48:56;0.98;;;0.43;;
75914;SDS011;64593;51.050;13.780;2023-02-27T15:53:59;2.70;;;0.30;;
75914;SDS011;64593;51.050;13.780;2023-02-27T15:59:01;3.97;;;0.50;;
75914;SDS011;64593;51.050;13.780;2023-02-27T16:04:30;3.03;;;0.80;;
75914;SDS011;64593;51.050;13.780;2023-02-27T16:10:04;1.50;;;0.65;;
75914;SDS011;64593;51.050;13.780;2023-02-27T16:15:36;2.38;;;0.75;;
75914;SDS011;64593;51.050;13.780;2023-02-27T16:31:32;2.97;;;0.90;;
75914;SDS011;64593;51.050;13.780;2023-02-27T16:37:02;2.28;;;0.73;;
75914;SDS011;64593;51.050;13.780;2023-02-27T16:42:07;1.70;;;0.70;;
75914;SDS011;64593;51.050;13.780;2023-02-27T16:47:10;1.17;;;0.50;;
75914;SDS011;64593;51.050;13.780;2023-02-27T16:52:38;1.85;;;0.80;;
75914;SDS011;64593;51.050;13.780;2023-02-27T16:58:08;1.30;;;0.70;;
75914;SDS011;64593;51.050;13.780;2023-02-27T17:03:13;2.35;;;0.70;;
75914;SDS011;64593;51.050;13.780;2023-02-27T17:08:42;5.13;;;1.23;;
75914;SDS011;64593;51.050;13.780;2023-02-27T17:13:44;3.92;;;0.80;;
75914;SDS011;64593;51.050;13.780;2023-02-27T17:18:46;3.42;;;1.10;;
75914;SDS011;64593;51.050;13.780;2023-02-27T17:23:48;1.95;;;0.80;;
75914;SDS011;64593;51.050;13.780;2023-02-27T17:28:49;1.83;;;0.80;;
75914;SDS011;64593;51.050;13.780;2023-02-27T17:34:16;3.17;;;0.82;;
75914;SDS011;64593;51.050;13.780;2023-02-27T17:39:43;1.63;;;0.63;;
75914;SDS011;64593;51.050;13.780;2023-02-27T17:44:45;3.33;;;0.93;;
75914;SDS011;64593;51.050;13.780;2023-02-27T17:49:52;1.67;;;0.70;;
75914;SDS011;64593;51.050;13.780;2023-02-27T17:54:53;1.77;;;0.80;;
75914;SDS011;64593;51.050;13.780;2023-02-27T18:00:21;1.10;;;0.50;;
75914;SDS011;64593;51.050;13.780;2023-02-27T18:05:49;2.97;;;1.30;;
75914;SDS011;64593;51.050;13.780;2023-02-27T18:15:55;2.58;;;1.20;;
75914;SDS011;64593;51.050;13.780;2023-02-27T18:21:00;3.25;;;1.38;;
75914;SDS011;64593;51.050;13.780;2023-02-27T18:26:29;3.70;;;1.45;;
75914;SDS011;64593;51.050;13.780;2023-02-27T18:31:34;5.10;;;1.75;;
75914;SDS011;64593;51.050;13.780;2023-02-27T18:36:40;5.97;;;1.50;;
75914;SDS011;64593;51.050;13.780;2023-02-27T18:41:42;3.70;;;1.50;;
75914;SDS011;64593;51.050;13.780;2023-02-27T18:47:09;5.45;;;1.55;;
75914;SDS011;64593;51.050;13.780;2023-02-27T18:52:37;2.97;;;1.25;;
75914;SDS011;64593;51.050;13.780;2023-02-27T18:58:04;5.43;;;1.50;;
75914;SDS011;64593;51.050;13.780;2023-02-27T19:03:06;3.30;;;1.75;;
75914;SDS011;64593;51.050;13.780;2023-02-27T19:08:11;4.82;;;1.77;;
75914;SDS011;64593;51.050;13.780;2023-02-27T19:13:16;7.32;;;1.80;;
75914;SDS011;64593;51.050;13.780;2023-02-27T19:18:44;13.35;;;4.10;;
75914;SDS011;64593;51.050;13.780;2023-02-27T19:23:48;7.78;;;3.72;;
75914;SDS011;64593;51.050;13.780;2023-02-27T19:29:15;10.38;;;3.97;;
75914;SDS011;64593;51.050;13.780;2023-02-27T19:34:42;5.78;;;2.85;;
75914;SDS011;64593;51.050;13.780;2023-02-27T19:40:09;8.40;;;3.75;;
75914;SDS011;64593;51.050;13.780;2023-02-27T19:45:13;3.03;;;2.10;;
75914;SDS011;64593;51.050;13.780;2023-02-27T19:50:40;7.88;;;3.67;;
75914;SDS011;64593;51.050;13.780;2023-02-27T19:56:15;8.00;;;4.00;;
75914;SDS011;64593;51.050;13.780;2023-02-27T20:01:22;7.53;;;4.05;;
75914;SDS011;64593;51.050;13.780;2023-02-27T20:06:53;10.40;;;4.95;;
75914;SDS011;64593;51.050;13.780;2023-02-27T20:12:20;10.60;;;4.57;;
75914;SDS011;64593;51.050;13.780;2023-02-27T20:17:47;5.47;;;3.15;;
75914;SDS011;64593;51.050;13.780;2023-02-27T20:23:14;10.93;;;4.32;;
75914;SDS011;64593;51.050;13.780;2023-02-27T20:28:42;6.95;;;3.80;;
75914;SDS011;64593;51.050;13.780;2023-02-27T20:34:10;8.70;;;4.30;;
75914;SDS011;64593;51.050;13.780;2023-02-27T20:39:14;12.32;;;5.43;;
75914;SDS011;64593;51.050;13.780;2023-02-27T20:44:41;9.02;;;5.10;;
75914;SDS011;64593;51.050;13.780;2023-02-27T20:49:43;8.38;;;4.50;;
75914;SDS011;64593;51.050;13.780;2023-02-27T20:55:10;11.25;;;5.55;;
75914;SDS011;64593;51.050;13.780;2023-02-27T21:00:37;15.98;;;6.25;;
75914;SDS011;64593;51.050;13.780;2023-02-27T21:05:44;13.60;;;7.85;;
75914;SDS011;64593;51.050;13.780;2023-02-27T21:10:47;12.65;;;7.50;;
75914;SDS011;64593;51.050;13.780;2023-02-27T21:16:17;14.70;;;7.00;;
75914;SDS011;64593;51.050;13.780;2023-02-27T21:21:44;12.88;;;7.35;;
75914;SDS011;64593;51.050;13.780;2023-02-27T21:26:50;11.35;;;6.55;;
75914;SDS011;64593;51.050;13.780;2023-02-27T21:32:17;15.18;;;8.20;;
75914;SDS011;64593;51.050;13.780;2023-02-27T21:37:44;15.98;;;7.82;;
75914;SDS011;64593;51.050;13.780;2023-02-27T21:42:47;13.95;;;7.88;;
75914;SDS011;64593;51.050;13.780;2023-02-27T21:47:50;9.82;;;6.20;;
75914;SDS011;64593;51.050;13.780;2023-02-27T21:53:17;11.90;;;6.35;;
75914;SDS011;64593;51.050;13.780;2023-02-27T21:58:46;14.77;;;6.82;;
75914;SDS011;64593;51.050;13.780;2023-02-27T22:04:15;16.42;;;7.13;;
75914;SDS011;64593;51.050;13.780;2023-02-27T22:09:18;12.77;;;6.78;;
75914;SDS011;64593;51.050;13.780;2023-02-27T22:14:20;11.70;;;6.47;;
75914;SDS011;64593;51.050;13.780;2023-02-27T22:19:22;11.93;;;6.00;;
75914;SDS011;64593;51.050;13.780;2023-02-27T22:24:24;13.68;;;5.45;;
75914;SDS011;64593;51.050;13.780;2023-02-27T22:29:51;11.05;;;5.10;;
75914;SDS011;64593;51.050;13.780;2023-02-27T22:34:56;10.82;;;5.60;;
75914;SDS011;64593;51.050;13.780;2023-02-27T22:40:23;11.50;;;5.50;;
75914;SDS011;64593;51.050;13.780;2023-02-27T22:45:50;11.45;;;5.15;;
75914;SDS011;64593;51.050;13.780;2023-02-27T22:50:55;9.45;;;4.40;;
75914;SDS011;64593;51.050;13.780;2023-02-27T22:56:24;7.00;;;3.90;;
